Time;durP1;ratioP1;P1;durP2;ratioP2;P2;SDS_P1;SDS_P2;PMS_P1;PMS_P2;Temp;Humidity;BMP_temperature;BMP_pressure;BME280_temperature;BME280_humidity;BME280_pressure;Samples;Min_cycle;Max_cycle;Signal;HPM_P1;HPM_P2
2022/12/02 00:02:28;;;;;;;48.67;21.33;;;4.00;99.90;;;;;;4994183;28;20046;-61
2022/12/02 00:04:57;;;;;;;60.13;21.75;;;3.70;99.90;;;;;;4977770;28;20050;-61
2022/12/02 00:07:23;;;;;;;52.10;22.45;;;3.80;99.90;;;;;;4995056;28;20042;-62
2022/12/02 00:09:49;;;;;;;50.13;21.50;;;3.70;99.90;;;;;;4994608;28;20050;-62
2022/12/02 00:12:22;;;;;;;52.58;22.33;;;3.90;99.90;;;;;;4977290;28;20711;-61
2022/12/02 00:14:58;;;;;;;53.28;20.70;;;3.90;99.90;;;;;;4977287;28;20073;-61
2022/12/02 00:17:24;;;;;;;49.10;22.45;;;3.70;99.90;;;;;;4994770;28;20092;-61
2022/12/02 00:19:50;;;;;;;49.60;21.27;;;3.70;99.90;;;;;;4977024;28;20492;-62
2022/12/02 00:22:16;;;;;;;51.60;22.60;;;3.80;99.90;;;;;;4994747;28;20046;-61
2022/12/02 00:24:41;;;;;;;52.80;22.75;;;3.70;99.90;;;;;;4977255;28;20062;-62
2022/12/02 00:27:07;;;;;;;51.30;21.75;;;3.60;99.90;;;;;;4994564;28;20117;-61
2022/12/02 00:29:33;;;;;;;46.15;19.65;;;3.60;99.90;;;;;;4977244;28;20046;-61
2022/12/02 00:31:58;;;;;;;54.03;23.27;;;3.70;99.90;;;;;;4976890;28;20046;-62
2022/12/02 00:34:24;;;;;;;49.63;22.20;;;3.70;99.90;;;;;;4994557;28;20053;-62
2022/12/02 00:36:49;;;;;;;47.63;23.33;;;3.60;99.90;;;;;;4993041;28;20045;-61
2022/12/02 00:39:15;;;;;;;61.13;23.70;;;3.60;99.90;;;;;;4994585;28;20118;-61
2022/12/02 00:41:41;;;;;;;54.72;22.88;;;3.60;99.90;;;;;;4994293;28;20104;-62
2022/12/02 00:46:50;;;;;;;53.55;21.58;;;3.70;99.90;;;;;;4994318;28;20050;-61
2022/12/02 00:49:16;;;;;;;54.50;23.33;;;3.60;99.90;;;;;;4993966;28;20038;-62
2022/12/02 00:51:43;;;;;;;55.53;22.83;;;3.60;99.90;;;;;;4994369;28;20382;-61
2022/12/02 00:54:10;;;;;;;53.75;23.05;;;3.60;99.90;;;;;;4960367;28;20121;-62
2022/12/02 00:56:36;;;;;;;54.50;22.25;;;3.60;99.90;;;;;;4976584;28;20042;-60
2022/12/02 00:59:03;;;;;;;50.90;22.85;;;3.60;99.90;;;;;;4993992;28;20548;-61
2022/12/02 01:01:29;;;;;;;51.78;24.10;;;3.50;99.90;;;;;;4993894;28;20053;-61
2022/12/02 01:03:55;;;;;;;52.42;24.95;;;3.60;99.90;;;;;;4976678;28;20149;-62
2022/12/02 01:06:21;;;;;;;55.15;23.65;;;3.60;99.90;;;;;;4976361;28;20116;-61
2022/12/02 01:08:47;;;;;;;59.20;24.52;;;;;;;;;;4976366;28;20049;-62
2022/12/02 01:11:13;;;;;;;65.25;24.40;;;3.60;99.90;;;;;;4976583;28;20046;-60
2022/12/02 01:13:39;;;;;;;52.65;22.67;;;3.60;99.90;;;;;;4976345;28;20035;-61
2022/12/02 01:16:05;;;;;;;59.63;24.80;;;3.50;99.90;;;;;;4993919;28;20034;-61
2022/12/02 01:18:31;;;;;;;51.17;22.77;;;;;;;;;;4980119;28;20070;-62
2022/12/02 01:20:56;;;;;;;56.92;23.58;;;3.50;99.90;;;;;;4993920;28;20105;-62
2022/12/02 01:23:22;;;;;;;56.42;24.40;;;;;;;;;;4976301;28;20573;-62
2022/12/02 01:25:48;;;;;;;56.92;22.70;;;3.60;99.90;;;;;;4980202;28;20405;-61
2022/12/02 01:28:15;;;;;;;48.85;22.35;;;3.60;99.90;;;;;;4976201;28;20074;-62
2022/12/02 01:30:41;;;;;;;52.10;23.60;;;3.50;99.90;;;;;;4993609;28;20044;-60
2022/12/02 01:33:07;;;;;;;50.60;24.02;;;;;;;;;;4993470;28;20038;-62
2022/12/02 01:35:32;;;;;;;52.80;22.33;;;3.50;99.90;;;;;;4975829;28;20505;-61
2022/12/02 01:37:58;;;;;;;54.55;22.65;;;;;;;;;;4976120;28;20038;-61
2022/12/02 01:40:25;;;;;;;56.65;24.63;;;3.60;99.90;;;;;;4976493;28;20042;-60
2022/12/02 01:42:51;;;;;;;49.30;23.60;;;3.50;99.90;;;;;;4993410;28;20097;-62
2022/12/02 01:45:17;;;;;;;57.65;25.13;;;3.60;99.90;;;;;;4993667;28;20043;-61
2022/12/02 01:47:42;;;;;;;55.80;24.38;;;3.50;99.90;;;;;;4993475;28;20041;-61
2022/12/02 01:50:10;;;;;;;56.03;23.35;;;3.50;99.90;;;;;;4993631;28;20050;-61
2022/12/02 01:52:36;;;;;;;54.55;22.52;;;3.60;99.90;;;;;;4969287;28;20049;-61
2022/12/02 01:55:03;;;;;;;51.22;23.02;;;3.50;99.90;;;;;;4992984;28;20034;-61
2022/12/02 01:57:30;;;;;;;50.08;22.50;;;3.70;99.90;;;;;;4993475;28;20451;-60
2022/12/02 01:59:56;;;;;;;44.15;20.92;;;;;;;;;;4993451;28;20105;-61
2022/12/02 02:02:27;;;;;;;51.13;21.48;;;3.50;99.90;;;;;;4993272;28;20084;-60
2022/12/02 02:04:57;;;;;;;52.17;21.80;;;3.50;99.90;;;;;;4976624;28;20453;-61
2022/12/02 02:07:22;;;;;;;48.88;21.48;;;3.40;99.90;;;;;;4993069;28;20034;-62
2022/12/02 02:09:48;;;;;;;52.08;20.90;;;3.40;99.90;;;;;;4993259;28;20038;-61
2022/12/02 02:12:14;;;;;;;43.35;19.80;;;3.40;99.90;;;;;;4993251;28;20057;-61
2022/12/02 02:14:40;;;;;;;46.53;19.67;;;;;;;;;;4993298;28;20473;-61
2022/12/02 02:17:06;;;;;;;40.63;18.77;;;3.50;99.90;;;;;;4993408;28;20516;-61
2022/12/02 02:19:32;;;;;;;46.35;20.27;;;3.40;99.90;;;;;;4975564;28;20365;-60
2022/12/02 02:22:00;;;;;;;50.95;19.63;;;3.50;99.90;;;;;;4975674;28;20400;-62
2022/12/02 02:24:25;;;;;;;46.05;19.10;;;3.50;99.90;;;;;;4994178;28;20078;-61
2022/12/02 02:26:51;;;;;;;40.92;17.58;;;3.40;99.90;;;;;;4996806;28;20058;-61
2022/12/02 02:29:17;;;;;;;39.42;16.73;;;3.40;99.90;;;;;;4979058;28;20034;-60
2022/12/02 02:31:42;;;;;;;42.63;18.23;;;3.30;99.90;;;;;;4996988;28;20038;-60
2022/12/02 02:34:08;;;;;;;44.20;15.90;;;3.40;99.90;;;;;;4996742;28;20042;-61
2022/12/02 02:36:34;;;;;;;43.08;17.08;;;3.50;99.90;;;;;;4996786;28;20030;-60
2022/12/02 02:39:00;;;;;;;34.58;16.63;;;3.40;99.90;;;;;;4996464;28;20049;-62
2022/12/02 02:41:26;;;;;;;37.10;16.80;;;3.40;99.90;;;;;;4996520;28;20141;-62
2022/12/02 02:43:52;;;;;;;33.58;16.83;;;3.40;99.90;;;;;;4996480;28;20105;-60
2022/12/02 02:46:18;;;;;;;41.75;17.77;;;3.40;99.90;;;;;;4996645;28;20043;-61
2022/12/02 02:48:45;;;;;;;38.20;18.10;;;3.30;99.90;;;;;;4996403;28;20118;-62
2022/12/02 02:51:12;;;;;;;37.53;15.90;;;3.20;99.90;;;;;;4996312;28;20117;-62
2022/12/02 02:53:38;;;;;;;32.33;15.85;;;3.40;99.90;;;;;;4996216;28;20125;-62
2022/12/02 02:56:04;;;;;;;37.15;16.80;;;3.30;99.90;;;;;;4996259;28;20503;-61
2022/12/02 02:58:33;;;;;;;36.00;15.90;;;3.10;99.90;;;;;;4978680;28;20115;-62
2022/12/02 03:01:10;;;;;;;32.58;16.27;;;3.30;99.90;;;;;;4978714;28;20042;-60
2022/12/02 03:03:42;;;;;;;37.70;15.98;;;3.40;99.90;;;;;;4996108;28;20043;-62
2022/12/02 03:06:09;;;;;;;36.45;15.82;;;3.30;99.90;;;;;;4978956;28;20046;-62
2022/12/02 03:08:38;;;;;;;34.85;15.73;;;3.30;99.90;;;;;;4978555;28;20088;-61
2022/12/02 03:11:04;;;;;;;32.15;14.90;;;3.20;99.90;;;;;;4978402;28;20134;-62
2022/12/02 03:13:33;;;;;;;33.53;17.15;;;3.20;99.90;;;;;;4996197;28;20081;-61
2022/12/02 03:16:00;;;;;;;38.85;17.80;;;3.30;99.90;;;;;;4996062;28;20088;-61
2022/12/02 03:18:26;;;;;;;32.13;15.15;;;3.50;99.90;;;;;;4995697;28;20057;-62
2022/12/02 03:20:51;;;;;;;34.05;14.82;;;3.30;99.90;;;;;;4995743;28;20042;-62
2022/12/02 03:23:17;;;;;;;34.55;14.80;;;3.30;99.90;;;;;;4996277;28;20150;-60
2022/12/02 03:25:43;;;;;;;29.85;14.30;;;3.40;99.90;;;;;;4995627;28;20440;-62
2022/12/02 03:28:10;;;;;;;30.77;14.55;;;3.30;99.90;;;;;;4995763;28;20037;-61
2022/12/02 03:30:37;;;;;;;34.55;15.65;;;3.30;99.90;;;;;;4978414;28;20054;-60
2022/12/02 03:33:03;;;;;;;32.60;15.07;;;3.40;99.90;;;;;;4978126;28;20049;-61
2022/12/02 03:35:29;;;;;;;36.83;14.52;;;3.30;99.90;;;;;;4995499;28;20037;-61
2022/12/02 03:37:55;;;;;;;31.63;15.15;;;;;;;;;;4978193;28;20042;-60
2022/12/02 03:40:22;;;;;;;33.58;15.82;;;;;;;;;;4978068;28;20042;-61
2022/12/02 03:42:48;;;;;;;34.05;15.48;;;3.20;99.90;;;;;;4995607;28;20042;-61
2022/12/02 03:45:14;;;;;;;38.53;16.10;;;;;;;;;;4995467;28;20494;-61
2022/12/02 03:47:40;;;;;;;34.83;15.43;;;;;;;;;;4995253;28;20042;-62
2022/12/02 03:50:07;;;;;;;33.13;16.35;;;2.90;99.90;;;;;;4995577;28;20049;-60
2022/12/02 03:52:33;;;;;;;37.53;16.38;;;3.10;99.90;;;;;;4995482;28;20381;-62
2022/12/02 03:54:59;;;;;;;34.10;15.10;;;3.00;99.90;;;;;;4995269;28;20038;-61
2022/12/02 03:57:25;;;;;;;36.33;16.85;;;;;;;;;;4995500;28;20038;-61
2022/12/02 03:59:51;;;;;;;33.70;14.88;;;3.00;99.90;;;;;;4995335;28;20042;-61
2022/12/02 04:02:17;;;;;;;36.95;16.05;;;3.00;99.90;;;;;;4977633;28;20042;-62
2022/12/02 04:04:42;;;;;;;32.42;16.15;;;3.10;99.90;;;;;;4977538;28;20053;-61
2022/12/02 04:07:08;;;;;;;36.95;15.52;;;;;;;;;;4977447;28;20081;-61
2022/12/02 04:09:34;;;;;;;35.28;16.52;;;2.90;99.90;;;;;;4995159;28;20046;-62
2022/12/02 04:11:59;;;;;;;33.28;15.52;;;2.80;99.90;;;;;;4994853;28;20045;-61
2022/12/02 04:14:25;;;;;;;33.22;14.23;;;2.90;99.90;;;;;;4995173;28;20038;-61
2022/12/02 04:16:50;;;;;;;36.67;14.38;;;3.00;99.90;;;;;;4977381;28;20049;-62
2022/12/02 04:19:16;;;;;;;37.03;16.35;;;;;;;;;;4977195;28;20137;-62
2022/12/02 04:21:42;;;;;;;33.42;14.82;;;2.90;99.90;;;;;;4994734;28;20132;-62
2022/12/02 04:24:07;;;;;;;29.58;13.80;;;3.00;99.90;;;;;;4994521;28;20518;-62
2022/12/02 04:26:33;;;;;;;36.63;15.07;;;2.90;99.90;;;;;;4994903;28;20050;-61
2022/12/02 04:28:59;;;;;;;34.70;16.38;;;;;;;;;;4977320;28;20133;-61
2022/12/02 04:31:24;;;;;;;38.95;15.55;;;3.00;99.90;;;;;;4977207;28;20485;-60
2022/12/02 04:33:50;;;;;;;37.35;15.57;;;2.90;99.90;;;;;;4994700;28;20034;-62
2022/12/02 04:36:16;;;;;;;37.75;14.88;;;;;;;;;;4994196;28;20046;-63
2022/12/02 04:38:41;;;;;;;34.63;14.77;;;2.90;99.90;;;;;;4994625;28;20039;-62
2022/12/02 04:41:07;;;;;;;34.08;15.50;;;;;;;;;;4994322;28;20396;-62
2022/12/02 04:43:33;;;;;;;37.53;16.63;;;2.80;99.90;;;;;;4976949;28;20404;-61
2022/12/02 04:45:58;;;;;;;33.50;16.55;;;2.90;99.90;;;;;;4976736;28;20064;-61
2022/12/02 04:48:24;;;;;;;40.15;16.45;;;2.90;99.90;;;;;;4993848;28;20065;-60
2022/12/02 04:50:49;;;;;;;38.90;16.95;;;3.00;99.90;;;;;;4994424;28;20035;-60
2022/12/02 04:53:15;;;;;;;36.78;16.98;;;3.10;99.90;;;;;;4994040;28;20434;-61
2022/12/02 04:55:42;;;;;;;47.03;17.00;;;3.00;99.90;;;;;;4976643;28;20428;-60
2022/12/02 04:58:08;;;;;;;41.55;17.15;;;2.90;99.90;;;;;;4976891;28;20045;-61
2022/12/02 05:00:33;;;;;;;45.85;19.02;;;;;;;;;;4994047;28;20038;-60
2022/12/02 05:02:59;;;;;;;43.63;18.83;;;2.90;99.90;;;;;;4993910;28;20042;-62
2022/12/02 05:05:25;;;;;;;43.13;18.02;;;;;;;;;;4976375;28;20093;-61
2022/12/02 05:07:51;;;;;;;43.42;17.20;;;3.00;99.90;;;;;;4993884;28;20042;-62
2022/12/02 05:10:17;;;;;;;39.53;18.33;;;;;;;;;;4976595;28;20053;-62
2022/12/02 05:12:42;;;;;;;44.95;17.60;;;2.90;99.90;;;;;;4993798;28;20126;-62
2022/12/02 05:15:08;;;;;;;44.53;17.52;;;2.90;99.90;;;;;;4993768;28;20077;-62
2022/12/02 05:17:34;;;;;;;38.95;17.10;;;;;;;;;;4976484;28;20477;-62
2022/12/02 05:19:59;;;;;;;48.90;20.48;;;2.90;99.90;;;;;;4976255;28;20054;-60
2022/12/02 05:22:25;;;;;;;42.88;17.02;;;2.90;99.90;;;;;;4993919;28;20062;-61
2022/12/02 05:24:51;;;;;;;38.63;18.13;;;3.00;99.90;;;;;;4993652;28;20444;-62
2022/12/02 05:27:16;;;;;;;44.88;18.70;;;2.90;99.90;;;;;;4976018;28;20042;-61
2022/12/02 05:29:42;;;;;;;43.92;17.50;;;3.00;99.90;;;;;;4976260;28;20042;-61
2022/12/02 05:32:08;;;;;;;52.95;21.55;;;3.00;99.90;;;;;;4976163;28;20046;-60
2022/12/02 05:34:34;;;;;;;49.75;20.75;;;;;;;;;;4976295;28;20042;-61
2022/12/02 05:37:00;;;;;;;48.33;20.17;;;;;;;;;;4993420;28;20709;-62
2022/12/02 05:39:25;;;;;;;51.15;19.38;;;2.90;99.90;;;;;;4993747;28;20041;-61
2022/12/02 05:41:51;;;;;;;51.30;20.95;;;2.80;99.90;;;;;;4993705;28;20045;-62
2022/12/02 05:44:23;;;;;;;54.55;20.80;;;2.70;99.90;;;;;;4993435;28;20093;-61
2022/12/02 05:46:50;;;;;;;55.05;21.80;;;;;;;;;;4993329;28;20117;-62
2022/12/02 05:49:21;;;;;;;58.22;20.42;;;2.80;99.90;;;;;;4976015;28;20086;-63
2022/12/02 05:51:57;;;;;;;48.20;19.98;;;2.80;99.90;;;;;;4993376;28;20042;-62
2022/12/02 05:54:24;;;;;;;55.75;22.05;;;2.80;99.90;;;;;;4993462;28;20074;-61
2022/12/02 05:56:50;;;;;;;50.22;22.17;;;2.80;99.90;;;;;;4975917;28;20042;-61
2022/12/02 05:59:19;;;;;;;55.88;23.02;;;2.90;99.90;;;;;;4977048;28;20046;-61
2022/12/02 06:01:56;;;;;;;54.30;21.27;;;2.80;99.90;;;;;;4997061;28;20043;-59
2022/12/02 06:04:30;;;;;;;52.22;20.92;;;2.90;99.90;;;;;;4980034;28;20096;-62
2022/12/02 06:07:00;;;;;;;50.80;20.52;;;2.80;99.90;;;;;;4997022;28;20046;-61
2022/12/02 06:09:29;;;;;;;54.70;22.00;;;2.70;99.90;;;;;;4979893;28;20038;-61
2022/12/02 06:11:56;;;;;;;52.45;22.05;;;2.60;99.90;;;;;;4996949;28;20078;-62
2022/12/02 06:14:24;;;;;;;60.08;21.85;;;2.60;99.90;;;;;;4979815;28;20046;-61
2022/12/02 06:16:53;;;;;;;57.25;20.65;;;2.60;99.90;;;;;;4997173;28;20121;-62
2022/12/02 06:19:41;;;;;;;58.70;21.45;;;2.60;99.90;;;;;;4983760;28;20054;-62
2022/12/02 06:22:17;;;;;;;56.13;20.15;;;2.70;99.90;;;;;;4979785;28;20073;-61
2022/12/02 06:24:43;;;;;;;58.13;20.27;;;2.50;99.90;;;;;;4979239;28;20053;-62
2022/12/02 06:27:13;;;;;;;52.97;20.08;;;2.70;99.90;;;;;;4996812;28;20428;-62
2022/12/02 06:29:47;;;;;;;55.75;20.80;;;2.60;99.90;;;;;;4997002;28;20030;-61
2022/12/02 06:32:20;;;;;;;54.45;21.45;;;2.50;99.90;;;;;;4979739;28;20042;-62
2022/12/02 06:34:49;;;;;;;58.00;22.17;;;2.60;99.90;;;;;;4979314;28;20161;-61
2022/12/02 06:37:21;;;;;;;56.13;24.08;;;2.60;99.90;;;;;;4996729;28;20092;-60
2022/12/02 06:39:54;;;;;;;54.13;22.48;;;2.60;99.90;;;;;;4983806;28;20109;-61
2022/12/02 06:42:22;;;;;;;63.13;22.58;;;;;;;;;;4979222;28;20053;-61
2022/12/02 06:45:04;;;;;;;60.10;23.17;;;;;;;;;;4996861;28;20042;-62
2022/12/02 06:47:32;;;;;;;52.88;22.95;;;2.70;99.90;;;;;;4996382;28;20049;-62
2022/12/02 06:50:20;;;;;;;58.88;21.50;;;2.70;99.90;;;;;;4979313;28;20073;-62
2022/12/02 06:52:46;;;;;;;58.95;21.83;;;;;;;;;;4983814;28;20527;-60
2022/12/02 06:55:26;;;;;;;60.83;22.55;;;2.60;99.90;;;;;;4996642;28;20066;-60
2022/12/02 06:57:52;;;;;;;62.08;23.13;;;;;;;;;;4996082;28;20046;-62
2022/12/02 07:00:18;;;;;;;64.25;22.08;;;2.80;99.90;;;;;;4978607;28;20053;-61
2022/12/02 07:02:44;;;;;;;55.47;22.38;;;2.70;99.90;;;;;;4978761;28;20412;-62
2022/12/02 07:05:17;;;;;;;55.00;22.63;;;2.70;99.90;;;;;;4978499;28;20149;-62
2022/12/02 07:07:43;;;;;;;48.58;22.25;;;2.70;99.90;;;;;;4996268;28;20121;-62
2022/12/02 07:10:20;;;;;;;54.63;21.42;;;2.70;99.90;;;;;;4977949;28;20129;-62
2022/12/02 07:12:46;;;;;;;60.88;22.30;;;2.70;99.90;;;;;;4995793;28;20497;-62
2022/12/02 07:15:29;;;;;;;59.53;22.98;;;2.80;99.90;;;;;;4995822;28;20042;-60
2022/12/02 07:18:08;;;;;;;61.50;23.05;;;2.90;99.90;;;;;;4996294;28;20132;-61
2022/12/02 07:20:36;;;;;;;58.15;22.95;;;2.70;99.90;;;;;;4995909;28;20092;-62
2022/12/02 07:23:25;;;;;;;65.47;23.50;;;2.80;99.90;;;;;;4978543;28;20053;-62
2022/12/02 07:25:56;;;;;;;62.42;22.45;;;2.80;99.90;;;;;;4996030;28;20121;-61
2022/12/02 07:28:24;;;;;;;61.05;24.20;;;2.80;99.90;;;;;;4996084;28;20121;-61
2022/12/02 07:31:10;;;;;;;60.25;22.65;;;;;;;;;;4978487;28;20489;-61
2022/12/02 07:33:36;;;;;;;60.85;21.90;;;2.70;99.90;;;;;;4964978;28;20539;-62
2022/12/02 07:36:01;;;;;;;67.18;23.88;;;2.80;99.90;;;;;;4995040;28;20046;-61
2022/12/02 07:38:27;;;;;;;57.60;23.55;;;2.90;99.90;;;;;;4978205;28;20042;-61
2022/12/02 07:40:52;;;;;;;64.28;23.10;;;2.80;99.90;;;;;;4995363;28;20044;-62
2022/12/02 07:43:18;;;;;;;58.92;22.98;;;2.80;99.90;;;;;;4995547;28;20047;-62
2022/12/02 07:45:44;;;;;;;59.00;21.67;;;;;;;;;;4995214;28;20402;-63
2022/12/02 07:48:09;;;;;;;58.78;21.77;;;2.90;99.90;;;;;;4995114;28;20507;-62
2022/12/02 07:50:35;;;;;;;60.65;22.13;;;2.90;99.90;;;;;;4977834;28;20062;-64
2022/12/02 07:53:01;;;;;;;57.78;22.67;;;2.90;99.90;;;;;;4994809;28;20093;-64
2022/12/02 07:55:27;;;;;;;63.55;24.10;;;2.90;99.90;;;;;;4977892;28;20072;-63
2022/12/02 07:57:53;;;;;;;63.63;23.42;;;2.90;99.90;;;;;;4992670;28;20040;-65
2022/12/02 08:00:19;;;;;;;60.25;22.10;;;3.00;99.90;;;;;;4970205;28;20397;-65
2022/12/02 08:02:44;;;;;;;66.57;23.15;;;2.90;99.90;;;;;;4974851;28;20051;-66
2022/12/02 08:05:11;;;;;;;63.88;24.10;;;;;;;;;;4960166;28;20038;-65
2022/12/02 08:07:37;;;;;;;60.13;22.98;;;;;;;;;;4991355;28;20046;-64
2022/12/02 08:10:04;;;;;;;68.10;23.63;;;2.90;99.90;;;;;;4976516;28;20030;-65
2022/12/02 08:12:30;;;;;;;67.93;25.20;;;;;;;;;;4990936;28;20047;-65
2022/12/02 08:14:55;;;;;;;58.28;23.52;;;3.00;99.90;;;;;;4994639;28;20061;-64
2022/12/02 08:17:21;;;;;;;59.45;22.85;;;;;;;;;;4994395;28;20157;-63
2022/12/02 08:19:47;;;;;;;63.47;23.00;;;3.00;99.90;;;;;;4993724;28;20493;-65
2022/12/02 08:22:12;;;;;;;64.15;24.92;;;3.10;99.90;;;;;;4976299;28;20054;-64
2022/12/02 08:24:38;;;;;;;61.30;24.55;;;;;;;;;;4994613;28;20034;-63
2022/12/02 08:27:04;;;;;;;63.22;25.50;;;;;;;;;;4991681;28;20061;-66
2022/12/02 08:29:30;;;;;;;57.25;22.52;;;3.00;99.90;;;;;;4994675;28;20559;-64
2022/12/02 08:31:56;;;;;;;64.93;23.88;;;;;;;;;;4981885;28;20125;-64
2022/12/02 08:34:22;;;;;;;62.60;21.58;;;;;;;;;;4994299;28;20042;-64
2022/12/02 08:36:47;;;;;;;53.28;21.95;;;3.00;99.90;;;;;;4994106;28;20089;-64
2022/12/02 08:39:13;;;;;;;57.08;22.20;;;;;;;;;;4994346;28;20038;-64
2022/12/02 08:41:39;;;;;;;58.53;22.88;;;3.10;99.90;;;;;;4976988;28;20121;-65
2022/12/02 08:44:05;;;;;;;53.72;22.20;;;;;;;;;;4994022;28;20053;-64
2022/12/02 08:46:32;;;;;;;61.00;20.55;;;3.10;99.90;;;;;;4976174;28;20046;-65
2022/12/02 08:48:57;;;;;;;54.65;21.05;;;3.00;99.90;;;;;;4976510;28;20571;-65
2022/12/02 08:51:23;;;;;;;56.92;21.00;;;;;;;;;;4976420;28;20042;-65
2022/12/02 08:53:49;;;;;;;54.83;20.95;;;;;;;;;;4975263;28;20382;-65
2022/12/02 08:56:15;;;;;;;56.45;20.60;;;2.90;99.90;;;;;;4975743;28;20124;-62
2022/12/02 08:58:41;;;;;;;59.15;22.70;;;;;;;;;;4992862;28;20033;-62
2022/12/02 09:01:07;;;;;;;62.63;23.10;;;;;;;;;;4992969;28;20030;-63
2022/12/02 09:03:33;;;;;;;59.08;21.70;;;2.90;99.90;;;;;;4969003;28;20050;-62
2022/12/02 09:05:59;;;;;;;62.83;23.48;;;3.00;99.90;;;;;;4988968;28;20042;-64
2022/12/02 09:08:24;;;;;;;56.80;22.33;;;2.90;99.90;;;;;;4993179;28;20050;-64
2022/12/02 09:10:51;;;;;;;61.75;22.58;;;;;;;;;;4975759;28;20038;-63
2022/12/02 09:13:16;;;;;;;62.90;22.48;;;;;;;;;;4975942;28;20050;-64
2022/12/02 09:15:42;;;;;;;70.50;26.55;;;2.90;99.90;;;;;;4975869;28;20404;-64
2022/12/02 09:18:08;;;;;;;63.33;23.67;;;2.80;99.90;;;;;;4972273;28;20037;-64
2022/12/02 09:20:33;;;;;;;70.53;24.60;;;2.80;99.90;;;;;;4968665;28;20046;-64
2022/12/02 09:23:00;;;;;;;56.53;21.52;;;2.80;99.90;;;;;;4975850;28;20046;-64
2022/12/02 09:25:26;;;;;;;71.93;24.88;;;;;;;;;;4975955;28;20043;-64
2022/12/02 09:27:52;;;;;;;73.60;26.27;;;;;;;;;;4993707;28;20088;-64
2022/12/02 09:30:18;;;;;;;60.35;22.20;;;2.70;99.90;;;;;;4993157;28;20125;-64
2022/12/02 09:32:44;;;;;;;63.47;22.23;;;2.80;99.90;;;;;;4976733;28;20484;-64
2022/12/02 09:35:10;;;;;;;66.85;22.98;;;;;;;;;;4992927;28;20485;-63
2022/12/02 09:37:35;;;;;;;60.70;21.27;;;2.90;99.90;;;;;;4993400;28;20520;-64
2022/12/02 09:40:02;;;;;;;65.32;22.75;;;;;;;;;;4988695;28;20081;-64
2022/12/02 09:42:28;;;;;;;54.00;22.45;;;;;;;;;;4957255;28;20390;-64
2022/12/02 09:44:54;;;;;;;57.28;21.20;;;;;;;;;;4957296;28;20067;-64
2022/12/02 09:47:21;;;;;;;40.63;16.10;;;;;;;;;;4959324;28;20078;-64
2022/12/02 09:49:47;;;;;;;56.95;21.08;;;3.00;99.90;;;;;;4960740;28;20039;-64
2022/12/02 09:52:15;;;;;;;61.65;21.95;;;2.90;99.90;;;;;;4960211;28;20049;-64
2022/12/02 09:54:42;;;;;;;61.67;20.92;;;3.00;99.90;;;;;;4979545;28;20089;-64
2022/12/02 09:57:11;;;;;;;53.72;20.65;;;3.10;99.90;;;;;;4963407;28;20097;-64
2022/12/02 09:59:38;;;;;;;54.67;20.58;;;2.90;99.90;;;;;;4965884;28;20035;-64
2022/12/02 10:02:04;;;;;;;57.22;21.48;;;3.00;99.90;;;;;;4988862;28;20074;-64
2022/12/02 10:04:30;;;;;;;57.55;21.17;;;3.10;99.90;;;;;;4992598;28;20053;-64
2022/12/02 10:06:56;;;;;;;54.58;20.65;;;3.20;99.90;;;;;;4992480;28;20030;-64
2022/12/02 10:09:27;;;;;;;53.38;20.33;;;;;;;;;;4992904;28;20049;-63
2022/12/02 10:11:53;;;;;;;53.33;20.20;;;;;;;;;;4972731;28;20065;-64
2022/12/02 10:14:19;;;;;;;52.65;20.65;;;;;;;;;;4978977;28;20409;-63
2022/12/02 10:16:45;;;;;;;50.40;20.70;;;;;;;;;;4975454;28;20089;-64
2022/12/02 10:19:16;;;;;;;50.85;20.58;;;3.40;99.90;;;;;;4975265;28;20100;-64
2022/12/02 10:21:42;;;;;;;61.45;20.48;;;3.30;99.90;;;;;;4975417;28;20488;-64
2022/12/02 10:24:08;;;;;;;51.08;19.13;;;3.30;99.90;;;;;;4975641;28;20073;-64
2022/12/02 10:26:47;;;;;;;52.40;19.50;;;3.20;99.90;;;;;;4992753;28;20416;-66
2022/12/02 10:29:27;;;;;;;52.40;19.10;;;3.10;99.90;;;;;;4976037;28;20121;-64
2022/12/02 10:31:59;;;;;;;56.88;19.77;;;3.10;99.90;;;;;;4992626;28;20440;-64
2022/12/02 10:34:26;;;;;;;51.88;20.35;;;3.30;99.90;;;;;;4992845;28;20520;-64
2022/12/02 10:36:52;;;;;;;53.40;19.83;;;3.20;99.90;;;;;;4992569;28;20516;-64
2022/12/02 10:39:21;;;;;;;52.80;20.45;;;;;;;;;;4993001;28;20039;-64
2022/12/02 10:42:07;;;;;;;56.05;20.25;;;3.20;99.90;;;;;;4992482;28;20042;-64
2022/12/02 10:44:39;;;;;;;56.20;22.02;;;3.30;99.90;;;;;;4992080;28;20046;-63
2022/12/02 10:47:13;;;;;;;61.22;20.17;;;3.30;99.90;;;;;;4996549;28;20034;-63
2022/12/02 10:49:44;;;;;;;47.30;19.08;;;3.20;99.90;;;;;;4996334;28;20038;-63
2022/12/02 10:52:12;;;;;;;51.67;19.02;;;2.90;99.90;;;;;;4996112;28;20075;-63
2022/12/02 10:54:44;;;;;;;51.13;19.98;;;3.10;99.90;;;;;;4996361;28;20038;-63
2022/12/02 10:57:15;;;;;;;50.15;18.90;;;3.30;99.90;;;;;;4978910;28;20041;-63
2022/12/02 10:59:40;;;;;;;50.42;19.23;;;3.10;99.90;;;;;;4978897;28;20058;-63
2022/12/02 11:02:19;;;;;;;44.42;19.40;;;3.00;99.90;;;;;;4996007;28;20504;-63
2022/12/02 11:04:45;;;;;;;51.58;20.25;;;;;;;;;;4995977;28;20038;-64
2022/12/02 11:07:15;;;;;;;51.78;21.73;;;3.10;99.90;;;;;;4978567;28;20400;-65
2022/12/02 11:09:44;;;;;;;52.63;21.20;;;;;;;;;;4996035;28;20050;-66
2022/12/02 11:12:30;;;;;;;49.40;19.40;;;3.20;99.90;;;;;;4978331;28;20038;-65
2022/12/02 11:14:56;;;;;;;49.55;18.90;;;;;;;;;;4995952;28;20138;-66
2022/12/02 11:17:48;;;;;;;53.63;21.02;;;3.00;99.90;;;;;;4978246;28;20081;-65
2022/12/02 11:20:40;;;;;;;51.20;19.30;;;3.10;99.90;;;;;;4995191;28;20089;-65
2022/12/02 11:23:24;;;;;;;43.58;17.50;;;2.90;99.90;;;;;;4978283;28;20065;-66
2022/12/02 11:25:59;;;;;;;49.38;20.13;;;3.10;99.90;;;;;;4995587;28;20030;-66
2022/12/02 11:28:28;;;;;;;51.83;20.20;;;3.00;99.90;;;;;;4975667;28;20046;-65
2022/12/02 11:31:09;;;;;;;54.13;21.70;;;;;;;;;;4995163;28;20050;-64
2022/12/02 11:33:47;;;;;;;55.58;23.20;;;3.00;99.90;;;;;;4977079;28;20030;-66
2022/12/02 11:36:18;;;;;;;57.60;22.50;;;2.90;99.90;;;;;;4995089;28;20066;-66
2022/12/02 11:38:46;;;;;;;63.78;22.33;;;2.90;99.90;;;;;;4993143;28;20046;-65
2022/12/02 11:41:13;;;;;;;58.10;22.88;;;3.10;99.90;;;;;;4995608;28;20420;-65
2022/12/02 11:43:40;;;;;;;55.85;21.40;;;;;;;;;;4977551;28;20050;-64
2022/12/02 11:46:06;;;;;;;56.42;21.77;;;3.00;99.90;;;;;;4994149;28;20042;-66
2022/12/02 11:48:32;;;;;;;58.25;23.60;;;;;;;;;;4995481;28;20121;-65
2022/12/02 11:50:58;;;;;;;54.67;23.40;;;;;;;;;;4995024;28;20057;-65
2022/12/02 11:53:24;;;;;;;58.97;22.73;;;3.00;99.90;;;;;;4981167;28;20117;-65
2022/12/02 11:55:51;;;;;;;58.60;23.42;;;3.00;99.90;;;;;;4983106;28;20050;-65
2022/12/02 11:58:32;;;;;;;58.08;23.10;;;3.00;99.90;;;;;;4989833;28;20049;-65
2022/12/02 12:01:00;;;;;;;61.22;24.95;;;3.10;99.90;;;;;;4977191;28;20053;-66
2022/12/02 12:03:26;;;;;;;57.47;22.67;;;;;;;;;;4994796;28;20081;-65
2022/12/02 12:06:11;;;;;;;56.70;23.15;;;3.10;99.90;;;;;;4994903;28;20046;-66
2022/12/02 12:08:41;;;;;;;55.05;22.92;;;3.00;99.90;;;;;;4977959;28;20050;-66
2022/12/02 12:11:20;;;;;;;61.85;23.88;;;;;;;;;;4983389;28;20096;-62
2022/12/02 12:14:04;;;;;;;63.15;23.00;;;3.10;99.90;;;;;;4980248;28;20053;-65
2022/12/02 12:16:35;;;;;;;61.72;24.17;;;3.00;99.90;;;;;;4973318;28;20042;-65
2022/12/02 12:19:10;;;;;;;64.10;26.13;;;3.00;99.90;;;;;;4994438;28;20053;-64
2022/12/02 12:21:57;;;;;;;58.72;23.48;;;;;;;;;;4977274;28;20046;-65
2022/12/02 12:24:23;;;;;;;58.90;22.02;;;;;;;;;;4994610;28;20042;-65
2022/12/02 12:27:04;;;;;;;64.38;24.60;;;;;;;;;;4994552;28;20057;-65
2022/12/02 12:29:32;;;;;;;63.78;26.25;;;3.00;99.90;;;;;;4994413;28;20045;-65
2022/12/02 12:31:58;;;;;;;60.22;24.70;;;2.90;99.90;;;;;;4960756;28;20046;-65
2022/12/02 12:34:24;;;;;;;65.40;27.60;;;3.00;99.90;;;;;;4976858;28;20044;-66
2022/12/02 12:36:50;;;;;;;62.10;25.92;;;;;;;;;;4994514;28;20381;-65
2022/12/02 12:39:16;;;;;;;60.60;25.17;;;;;;;;;;4994160;28;20046;-65
2022/12/02 12:41:43;;;;;;;64.18;24.58;;;;;;;;;;4976871;28;20042;-65
2022/12/02 12:44:08;;;;;;;64.28;26.60;;;3.00;99.90;;;;;;4976902;28;20050;-66
2022/12/02 12:46:34;;;;;;;58.65;25.67;;;3.10;99.90;;;;;;4994152;28;20150;-66
2022/12/02 12:48:59;;;;;;;63.70;25.65;;;3.00;99.90;;;;;;4994240;28;20080;-66
2022/12/02 12:51:26;;;;;;;65.15;25.98;;;3.10;99.90;;;;;;4993806;28;20088;-66
2022/12/02 12:53:52;;;;;;;55.08;24.83;;;;;;;;;;4994130;28;20553;-66
2022/12/02 12:56:19;;;;;;;60.30;26.25;;;;;;;;;;4976563;28;20132;-65
2022/12/02 12:58:45;;;;;;;61.10;26.10;;;3.00;99.90;;;;;;4976285;28;20142;-66
2022/12/02 13:01:10;;;;;;;59.90;23.77;;;3.20;99.90;;;;;;4976498;28;20049;-66
2022/12/02 13:03:36;;;;;;;61.17;26.30;;;;;;;;;;4994020;28;20049;-66
2022/12/02 13:06:03;;;;;;;59.45;25.48;;;;;;;;;;4992669;28;20042;-65
2022/12/02 13:08:28;;;;;;;60.80;26.58;;;;;;;;;;4993480;28;20038;-65